createdAt,value
2018-01-22T00:00:50.302Z,15.70
2018-01-22T00:01:52.779Z,15.45
2018-01-22T00:02:55.346Z,14.10
2018-01-22T00:03:57.862Z,14.25
2018-01-22T00:05:00.343Z,15.48
2018-01-22T00:06:02.894Z,15.38
2018-01-22T00:07:06.194Z,14.15
2018-01-22T00:08:08.905Z,14.68
2018-01-22T00:09:11.404Z,14.50
2018-01-22T00:10:14.661Z,14.63
2018-01-22T00:11:18.341Z,15.70
2018-01-22T00:12:20.952Z,13.52
2018-01-22T00:13:23.497Z,13.30
2018-01-22T00:14:25.951Z,14.65
2018-01-22T00:15:28.680Z,14.50
2018-01-22T00:16:31.952Z,14.70
2018-01-22T00:17:35.219Z,15.00
2018-01-22T00:18:37.811Z,14.75
2018-01-22T00:19:41.058Z,14.73
2018-01-22T00:20:44.393Z,14.70
2018-01-22T00:21:47.646Z,14.60
2018-01-22T00:22:50.875Z,13.60
2018-01-22T00:23:54.149Z,14.10
2018-01-22T00:24:56.689Z,13.98
2018-01-22T00:25:59.153Z,13.73
2018-01-22T00:27:01.617Z,14.50
2018-01-22T00:28:04.123Z,14.57
2018-01-22T00:29:06.674Z,13.68
2018-01-22T00:30:09.133Z,14.35
2018-01-22T00:31:11.698Z,14.30
2018-01-22T00:32:14.962Z,14.85
2018-01-22T00:33:18.182Z,15.07
2018-01-22T00:34:20.853Z,13.00
2018-01-22T00:35:23.388Z,15.55
2018-01-22T00:36:26.403Z,14.93
2018-01-22T00:37:28.893Z,13.15
2018-01-22T00:38:31.466Z,14.75
2018-01-22T00:39:33.984Z,15.73
2018-01-22T00:40:36.447Z,15.63
2018-01-22T00:41:38.906Z,15.18
2018-01-22T00:42:41.413Z,15.32
2018-01-22T00:43:43.912Z,15.00
2018-01-22T00:44:46.402Z,15.50
2018-01-22T00:45:48.938Z,14.90
2018-01-22T00:46:51.409Z,15.77
2018-01-22T00:47:53.932Z,16.08
2018-01-22T00:48:56.424Z,15.68
2018-01-22T00:49:58.906Z,15.40
2018-01-22T00:51:01.367Z,15.00
2018-01-22T00:52:03.931Z,15.45
2018-01-22T00:53:07.221Z,15.60
2018-01-22T00:54:09.767Z,14.93
2018-01-22T00:55:12.273Z,15.68
2018-01-22T00:56:15.538Z,14.98
2018-01-22T00:57:18.047Z,13.88
2018-01-22T00:58:20.571Z,14.43
2018-01-22T00:59:23.050Z,14.10
2018-01-22T01:00:25.551Z,14.75
2018-01-22T01:01:28.783Z,13.55
2018-01-22T01:02:31.365Z,15.25
2018-01-22T01:03:34.600Z,14.02
2018-01-22T01:04:37.114Z,14.20
2018-01-22T01:05:39.623Z,14.45
2018-01-22T01:06:42.091Z,15.90
2018-01-22T01:07:45.323Z,14.05
2018-01-22T01:08:48.590Z,14.48
2018-01-22T01:09:51.851Z,14.30
2018-01-22T01:10:55.141Z,14.40
2018-01-22T01:11:58.397Z,15.40
2018-01-22T01:13:01.690Z,13.27
2018-01-22T01:14:04.190Z,14.68
2018-01-22T01:15:06.690Z,14.98
2018-01-22T01:16:09.259Z,14.05
2018-01-22T01:17:12.592Z,14.02
2018-01-22T01:18:15.092Z,15.35
2018-01-22T01:19:18.744Z,16.40
2018-01-22T01:20:21.988Z,15.27
2018-01-22T01:21:25.209Z,15.00
2018-01-22T01:22:27.694Z,16.20
2018-01-22T01:23:30.733Z,15.73
2018-01-22T01:24:33.243Z,15.35
2018-01-22T01:25:35.734Z,14.52
2018-01-22T01:26:38.998Z,16.37
2018-01-22T01:27:41.503Z,15.85
2018-01-22T01:28:44.742Z,15.70
2018-01-22T01:29:48.738Z,16.20
2018-01-22T01:30:51.253Z,15.52
2018-01-22T01:31:54.498Z,17.37
2018-01-22T01:32:57.041Z,15.88
2018-01-22T01:33:59.549Z,15.02
2018-01-22T01:35:02.811Z,16.33
2018-01-22T01:36:05.319Z,15.23
2018-01-22T01:37:08.542Z,16.73
2018-01-22T01:38:11.811Z,14.82
2018-01-22T01:39:14.349Z,15.27
2018-01-22T01:40:16.839Z,16.35
2018-01-22T01:41:20.358Z,15.77
2018-01-22T01:42:22.938Z,14.50
2018-01-22T01:43:25.558Z,14.75
2018-01-22T01:44:28.808Z,14.50
2018-01-22T01:45:31.310Z,14.75
2018-01-22T01:46:34.652Z,15.27
2018-01-22T01:47:37.965Z,13.77
2018-01-22T01:48:40.455Z,13.70
2018-01-22T01:49:42.962Z,15.57
2018-01-22T01:50:46.238Z,13.45
2018-01-22T01:51:48.787Z,14.30
2018-01-22T01:52:51.328Z,14.60
2018-01-22T01:53:53.887Z,14.45
2018-01-22T01:54:56.380Z,14.40
2018-01-22T01:55:58.895Z,14.85
2018-01-22T01:57:01.370Z,14.77
2018-01-22T01:58:03.851Z,14.27
2018-01-22T01:59:06.318Z,13.82
2018-01-22T02:00:08.804Z,14.40
2018-01-22T02:01:11.342Z,14.85
2018-01-22T02:02:15.549Z,13.98
2018-01-22T02:03:18.030Z,14.68
2018-01-22T02:04:21.297Z,14.55
2018-01-22T02:05:23.754Z,13.60
2018-01-22T02:06:26.259Z,13.82
2018-01-22T02:07:28.736Z,14.20
2018-01-22T02:08:31.308Z,13.23
2018-01-22T02:09:33.855Z,13.98
2018-01-22T02:10:36.324Z,13.52
2018-01-22T02:11:38.814Z,13.82
2018-01-22T02:12:41.565Z,13.73
2018-01-22T02:13:44.036Z,16.42
2018-01-22T02:14:46.537Z,14.70
2018-01-22T02:15:49.763Z,14.55
2018-01-22T02:16:52.247Z,13.60
2018-01-22T02:17:54.716Z,13.65
2018-01-22T02:18:57.179Z,13.95
2018-01-22T02:19:59.668Z,13.62
2018-01-22T02:21:02.231Z,14.27
2018-01-22T02:22:04.742Z,13.73
2018-01-22T02:23:08.002Z,14.50
2018-01-22T02:24:10.489Z,13.55
2018-01-22T02:25:13.815Z,14.15
2018-01-22T02:26:16.294Z,14.45
2018-01-22T02:27:18.774Z,14.40
2018-01-22T02:28:21.282Z,15.27
2018-01-22T02:29:23.750Z,16.15
2018-01-22T02:30:27.061Z,14.73
2018-01-22T02:31:29.528Z,14.80
2018-01-22T02:32:31.989Z,15.73
2018-01-22T02:33:34.523Z,15.40
2018-01-22T02:34:37.001Z,15.23
2018-01-22T02:35:39.538Z,15.35
2018-01-22T02:36:42.164Z,14.60
2018-01-22T02:37:44.636Z,14.48
2018-01-22T02:38:47.103Z,14.55
2018-01-22T02:39:50.376Z,15.77
2018-01-22T02:40:52.870Z,15.07
2018-01-22T02:41:56.405Z,14.80
2018-01-22T02:42:58.873Z,14.75
2018-01-22T02:44:01.420Z,15.20
2018-01-22T02:45:03.938Z,15.70
2018-01-22T02:46:06.483Z,15.13
2018-01-22T02:47:09.749Z,16.27
2018-01-22T02:48:12.401Z,15.07
2018-01-22T02:49:15.645Z,15.05
2018-01-22T02:50:18.384Z,14.93
2018-01-22T02:51:20.884Z,13.43
2018-01-22T02:52:24.125Z,14.25
2018-01-22T02:53:27.379Z,15.13
2018-01-22T02:54:30.603Z,15.70
2018-01-22T02:55:33.918Z,14.02
2018-01-22T02:56:36.478Z,14.85
2018-01-22T02:57:39.024Z,14.85
2018-01-22T02:58:41.564Z,14.77
2018-01-22T02:59:44.032Z,15.40
2018-01-22T03:00:46.493Z,15.35
2018-01-22T03:01:48.990Z,15.95
2018-01-22T03:02:51.546Z,15.23
2018-01-22T03:03:54.147Z,15.68
2018-01-22T03:04:56.635Z,15.80
2018-01-22T03:05:59.172Z,15.10
2018-01-22T03:07:01.636Z,16.83
2018-01-22T03:08:04.902Z,16.55
2018-01-22T03:09:07.383Z,15.10
2018-01-22T03:10:09.914Z,15.90
2018-01-22T03:11:12.393Z,15.25
2018-01-22T03:12:14.854Z,15.00
2018-01-22T03:13:17.309Z,16.67
2018-01-22T03:14:20.551Z,16.30
2018-01-22T03:15:23.826Z,14.63
2018-01-22T03:16:26.327Z,17.45
2018-01-22T03:17:29.587Z,15.65
2018-01-22T03:18:32.063Z,14.50
2018-01-22T03:19:34.625Z,15.15
2018-01-22T03:20:37.130Z,15.25
2018-01-22T03:21:39.590Z,16.02
2018-01-22T03:22:42.101Z,14.73
2018-01-22T03:23:45.333Z,15.57
2018-01-22T03:24:48.597Z,15.48
2018-01-22T03:25:51.062Z,15.88
2018-01-22T03:26:53.539Z,13.88
2018-01-22T03:27:56.014Z,15.38
2018-01-22T03:28:58.483Z,15.32
2018-01-22T03:30:01.704Z,16.02
2018-01-22T03:31:04.934Z,15.95
2018-01-22T03:32:07.443Z,16.10
2018-01-22T03:33:09.914Z,15.30
2018-01-22T03:34:12.416Z,15.63
2018-01-22T03:35:15.683Z,16.35
2018-01-22T03:36:18.157Z,16.85
2018-01-22T03:37:20.641Z,16.52
2018-01-22T03:38:23.119Z,17.00
2018-01-22T03:39:25.645Z,15.80
2018-01-22T03:40:33.077Z,16.30
2018-01-22T03:41:35.565Z,16.73
2018-01-22T03:42:38.079Z,16.48
2018-01-22T03:43:40.623Z,18.00
2018-01-22T03:44:43.132Z,16.77
2018-01-22T03:45:45.633Z,17.27
2018-01-22T03:46:48.879Z,17.15
2018-01-22T03:47:52.151Z,17.55
2018-01-22T03:48:54.655Z,16.45
2018-01-22T03:49:57.879Z,17.00
2018-01-22T03:51:00.415Z,17.62
2018-01-22T03:52:03.641Z,16.60
2018-01-22T03:53:06.233Z,17.98
2018-01-22T03:54:08.726Z,17.23
2018-01-22T03:55:11.302Z,17.27
2018-01-22T03:56:13.801Z,17.75
2018-01-22T03:57:16.439Z,16.45
2018-01-22T03:58:18.914Z,18.92
2018-01-22T03:59:22.189Z,16.45
2018-01-22T04:00:24.716Z,17.27
2018-01-22T04:01:27.983Z,17.25
2018-01-22T04:02:31.642Z,16.40
2018-01-22T04:03:34.170Z,16.85
2018-01-22T04:04:36.684Z,17.87
2018-01-22T04:05:39.166Z,16.73
2018-01-22T04:06:42.421Z,17.08
2018-01-22T04:07:44.961Z,17.67
2018-01-22T04:08:47.439Z,16.08
2018-01-22T04:09:50.039Z,18.52
2018-01-22T04:10:52.523Z,16.90
2018-01-22T04:11:55.027Z,18.50
2018-01-22T04:12:58.276Z,18.25
2018-01-22T04:14:01.725Z,17.48
2018-01-22T04:15:04.949Z,16.92
2018-01-22T04:16:08.208Z,16.70
2018-01-22T04:17:11.628Z,17.48
2018-01-22T04:18:14.909Z,16.95
2018-01-22T04:19:17.541Z,17.10
2018-01-22T04:20:20.017Z,17.20
2018-01-22T04:21:22.505Z,18.20
2018-01-22T04:22:24.994Z,17.70
2018-01-22T04:23:28.217Z,18.90
2018-01-22T04:24:30.689Z,16.92
2018-01-22T04:25:33.201Z,17.40
2018-01-22T04:26:35.791Z,17.52
2018-01-22T04:27:38.282Z,17.75
2018-01-22T04:28:40.745Z,16.25
2018-01-22T04:29:43.349Z,17.23
2018-01-22T04:30:45.812Z,18.67
2018-01-22T04:31:49.042Z,17.67
2018-01-22T04:32:51.502Z,17.20
2018-01-22T04:33:54.058Z,17.40
2018-01-22T04:34:56.506Z,17.87
2018-01-22T04:36:00.479Z,19.35
2018-01-22T04:37:02.983Z,17.05
2018-01-22T04:38:05.491Z,19.77
2018-01-22T04:39:08.034Z,18.23
2018-01-22T04:40:10.573Z,16.83
2018-01-22T04:41:13.087Z,18.95
2018-01-22T04:42:15.965Z,17.98
2018-01-22T04:43:19.207Z,18.92
2018-01-22T04:44:22.988Z,18.83
2018-01-22T04:45:25.570Z,18.30
2018-01-22T04:46:28.070Z,18.83
2018-01-22T04:47:30.539Z,18.70
2018-01-22T04:48:33.384Z,17.85
2018-01-22T04:49:35.922Z,18.52
2018-01-22T04:50:38.515Z,18.23
2018-01-22T04:51:41.769Z,20.05
2018-01-22T04:52:44.989Z,19.23
2018-01-22T04:53:47.678Z,18.83
2018-01-22T04:54:50.153Z,18.87
2018-01-22T04:55:53.413Z,17.98
2018-01-22T04:56:55.937Z,18.45
2018-01-22T04:57:58.665Z,17.95
2018-01-22T04:59:01.892Z,17.67
2018-01-22T05:00:05.125Z,17.80
2018-01-22T05:01:07.602Z,17.75
2018-01-22T05:02:10.078Z,17.48
2018-01-22T05:03:13.312Z,17.67
2018-01-22T05:04:15.770Z,18.10
2018-01-22T05:05:18.225Z,17.42
2018-01-22T05:06:20.758Z,17.80
2018-01-22T05:07:23.178Z,18.75
2018-01-22T05:08:25.690Z,17.60
2018-01-22T05:09:28.937Z,18.30
2018-01-22T05:10:31.454Z,17.75
2018-01-22T05:11:35.460Z,17.85
2018-01-22T05:12:37.960Z,18.12
2018-01-22T05:13:40.443Z,18.40
2018-01-22T05:14:43.674Z,18.65
2018-01-22T05:15:46.952Z,17.98
2018-01-22T05:16:49.406Z,18.98
2018-01-22T05:17:51.874Z,17.30
2018-01-22T05:18:55.089Z,18.27
2018-01-22T05:19:58.346Z,18.30
2018-01-22T05:21:00.876Z,17.77
2018-01-22T05:22:04.099Z,18.27
2018-01-22T05:23:06.562Z,18.20
2018-01-22T05:24:09.032Z,17.90
2018-01-22T05:25:11.498Z,19.05
2018-01-22T05:26:14.773Z,18.67
2018-01-22T05:27:17.263Z,18.10
2018-01-22T05:28:20.497Z,18.00
2018-01-22T05:29:23.758Z,17.98
2018-01-22T05:30:26.997Z,17.75
2018-01-22T05:31:29.485Z,19.20
2018-01-22T05:32:31.954Z,18.25
2018-01-22T05:33:34.525Z,19.20
2018-01-22T05:34:37.043Z,18.33
2018-01-22T05:35:39.501Z,18.08
2018-01-22T05:36:42.774Z,18.90
2018-01-22T05:37:45.249Z,18.12
2018-01-22T05:38:50.168Z,16.95
2018-01-22T05:39:52.653Z,17.48
2018-01-22T05:40:55.217Z,17.27
2018-01-22T05:41:58.862Z,17.48
2018-01-22T05:43:02.170Z,16.50
2018-01-22T05:44:04.660Z,17.15
2018-01-22T05:45:07.198Z,15.15
2018-01-22T05:46:09.657Z,16.70
2018-01-22T05:47:12.427Z,16.17
2018-01-22T05:48:14.886Z,17.42
2018-01-22T05:49:17.591Z,16.80
2018-01-22T05:50:20.054Z,17.58
2018-01-22T05:51:22.529Z,16.00
2018-01-22T05:52:25.087Z,16.30
2018-01-22T05:53:27.609Z,15.88
2018-01-22T05:54:30.544Z,17.12
2018-01-22T05:55:33.007Z,16.60
2018-01-22T05:56:35.463Z,16.85
2018-01-22T05:57:37.949Z,17.25
2018-01-22T05:58:40.443Z,18.30
2018-01-22T05:59:43.062Z,16.83
2018-01-22T06:00:45.584Z,15.88
2018-01-22T06:01:48.052Z,15.52
2018-01-22T06:02:50.512Z,15.48
2018-01-22T06:03:53.754Z,16.27
2018-01-22T06:04:56.981Z,15.73
2018-01-22T06:06:00.272Z,15.90
2018-01-22T06:07:02.732Z,16.35
2018-01-22T06:08:05.971Z,15.63
2018-01-22T06:09:08.565Z,15.00
2018-01-22T06:10:11.073Z,15.32
2018-01-22T06:11:13.551Z,15.38
2018-01-22T06:12:16.834Z,15.65
2018-01-22T06:13:19.342Z,15.38
2018-01-22T06:14:21.846Z,15.77
2018-01-22T06:15:24.306Z,15.55
2018-01-22T06:16:26.770Z,15.68
2018-01-22T06:17:29.262Z,15.23
2018-01-22T06:18:31.731Z,14.23
2018-01-22T06:19:34.253Z,14.15
2018-01-22T06:20:36.711Z,14.63
2018-01-22T06:21:39.190Z,14.20
2018-01-22T06:22:41.681Z,14.48
2018-01-22T06:23:44.948Z,15.48
2018-01-22T06:24:47.413Z,14.02
2018-01-22T06:25:50.748Z,15.80
2018-01-22T06:26:53.274Z,14.70
2018-01-22T06:27:55.725Z,14.65
2018-01-22T06:28:58.990Z,14.87
2018-01-22T06:30:02.247Z,14.95
2018-01-22T06:31:04.726Z,13.70
2018-01-22T06:32:07.976Z,14.70
2018-01-22T06:33:10.483Z,15.25
2018-01-22T06:34:12.949Z,14.65
2018-01-22T06:35:15.423Z,15.20
2018-01-22T06:36:17.895Z,14.95
2018-01-22T06:37:21.144Z,14.50
2018-01-22T06:38:23.670Z,15.32
2018-01-22T06:39:26.132Z,14.52
2018-01-22T06:40:28.603Z,15.10
2018-01-22T06:41:31.846Z,15.20
2018-01-22T06:42:35.278Z,14.20
2018-01-22T06:43:37.762Z,14.98
2018-01-22T06:44:40.236Z,15.15
2018-01-22T06:45:43.465Z,14.35
2018-01-22T06:46:46.050Z,15.52
2018-01-22T06:47:48.563Z,14.05
2018-01-22T06:48:51.075Z,15.10
2018-01-22T06:49:54.314Z,14.00
2018-01-22T06:50:57.550Z,13.95
2018-01-22T06:52:00.781Z,14.38
2018-01-22T06:53:03.295Z,14.55
2018-01-22T06:54:05.810Z,13.60
2018-01-22T06:55:08.332Z,13.82
2018-01-22T06:56:10.820Z,13.40
2018-01-22T06:57:13.671Z,14.43
2018-01-22T06:58:16.145Z,13.52
2018-01-22T06:59:19.406Z,13.60
2018-01-22T07:00:21.927Z,13.43
2018-01-22T07:01:25.203Z,13.20
2018-01-22T07:02:28.418Z,13.18
2018-01-22T07:03:31.036Z,13.85
2018-01-22T07:04:33.525Z,13.15
2018-01-22T07:05:36.806Z,13.80
2018-01-22T07:06:40.601Z,14.13
2018-01-22T07:07:43.105Z,13.23
2018-01-22T07:08:45.621Z,12.93
2018-01-22T07:09:48.116Z,13.00
2018-01-22T07:10:50.581Z,13.30
2018-01-22T07:11:53.106Z,14.57
2018-01-22T07:12:55.626Z,13.70
2018-01-22T07:13:58.138Z,13.85
2018-01-22T07:15:01.369Z,12.68
2018-01-22T07:16:04.631Z,12.60
2018-01-22T07:17:07.110Z,12.40
2018-01-22T07:18:09.682Z,13.00
2018-01-22T07:19:12.217Z,12.98
2018-01-22T07:20:16.665Z,12.80
2018-01-22T07:21:19.927Z,12.88
2018-01-22T07:22:22.405Z,11.73
2018-01-22T07:23:24.861Z,13.05
2018-01-22T07:24:27.392Z,13.25
2018-01-22T07:25:30.624Z,12.18
2018-01-22T07:26:33.877Z,13.05
2018-01-22T07:27:36.346Z,12.68
2018-01-22T07:28:38.813Z,13.00
2018-01-22T07:29:42.053Z,13.30
2018-01-22T07:30:44.961Z,12.00
2018-01-22T07:31:47.461Z,12.32
2018-01-22T07:32:49.943Z,12.20
2018-01-22T07:33:53.192Z,14.10
2018-01-22T07:34:56.429Z,11.90
2018-01-22T07:35:59.661Z,12.40
2018-01-22T07:37:02.929Z,12.68
2018-01-22T07:38:05.394Z,12.55
2018-01-22T07:39:07.874Z,13.23
2018-01-22T07:40:10.398Z,12.85
2018-01-22T07:41:12.890Z,13.02
2018-01-22T07:42:15.388Z,12.20
2018-01-22T07:43:17.877Z,12.55
2018-01-22T07:44:20.375Z,13.45
2018-01-22T07:45:23.633Z,11.70
2018-01-22T07:46:26.867Z,12.80
2018-01-22T07:47:30.101Z,12.93
2018-01-22T07:48:33.486Z,12.82
2018-01-22T07:49:35.995Z,12.70
2018-01-22T07:50:39.229Z,12.63
2018-01-22T07:51:42.575Z,13.07
2018-01-22T07:52:46.562Z,13.27
2018-01-22T07:53:49.103Z,13.75
2018-01-22T07:54:51.747Z,12.95
2018-01-22T07:55:54.259Z,12.80
2018-01-22T07:56:56.817Z,12.35
2018-01-22T07:57:59.321Z,12.43
2018-01-22T07:59:01.815Z,13.00
2018-01-22T08:00:04.440Z,12.45
2018-01-22T08:01:06.929Z,12.68
2018-01-22T08:02:10.200Z,12.95
2018-01-22T08:03:12.699Z,12.80
2018-01-22T08:04:15.208Z,13.32
2018-01-22T08:05:17.781Z,13.20
2018-01-22T08:06:21.015Z,12.70
2018-01-22T08:07:25.079Z,12.43
2018-01-22T08:08:28.337Z,12.60
2018-01-22T08:09:30.833Z,12.82
2018-01-22T08:10:34.065Z,13.40
2018-01-22T08:11:36.513Z,13.05
2018-01-22T08:12:39.036Z,12.60
2018-01-22T08:13:42.298Z,12.55
2018-01-22T08:14:44.773Z,14.05
2018-01-22T08:15:47.347Z,12.95
2018-01-22T08:16:49.818Z,13.52
2018-01-22T08:17:52.997Z,13.32
2018-01-22T08:18:55.472Z,13.60
2018-01-22T08:19:57.974Z,12.75
2018-01-22T08:21:00.424Z,13.35
2018-01-22T08:22:02.948Z,14.52
2018-01-22T08:23:05.414Z,13.93
2018-01-22T08:24:08.665Z,13.43
2018-01-22T08:25:11.194Z,12.90
2018-01-22T08:26:13.671Z,14.15
2018-01-22T08:27:16.146Z,13.27
2018-01-22T08:28:18.606Z,14.07
2018-01-22T08:29:21.074Z,13.18
2018-01-22T08:30:24.364Z,12.70
2018-01-22T08:31:26.826Z,13.73
2018-01-22T08:32:30.050Z,14.93
2018-01-22T08:33:32.533Z,13.52
2018-01-22T08:34:35.003Z,13.60
2018-01-22T08:35:37.483Z,13.62
2018-01-22T08:36:39.952Z,13.65
2018-01-22T08:37:42.445Z,13.55
2018-01-22T08:38:44.919Z,14.15
2018-01-22T08:39:47.390Z,14.25
2018-01-22T08:40:49.881Z,12.85
2018-01-22T08:41:53.158Z,14.35
2018-01-22T08:42:55.683Z,14.35
2018-01-22T08:43:58.156Z,13.62
2018-01-22T08:45:02.138Z,14.15
2018-01-22T08:46:05.423Z,14.23
2018-01-22T08:47:07.904Z,14.18
2018-01-22T08:48:11.129Z,15.20
2018-01-22T08:49:14.376Z,14.07
2018-01-22T08:50:16.857Z,15.40
2018-01-22T08:51:19.318Z,14.05
2018-01-22T08:52:22.625Z,14.13
2018-01-22T08:53:25.112Z,14.25
2018-01-22T08:54:28.378Z,14.63
2018-01-22T08:55:30.837Z,14.98
2018-01-22T08:56:33.335Z,14.10
2018-01-22T08:57:35.812Z,14.35
2018-01-22T08:58:38.274Z,14.77
2018-01-22T08:59:40.781Z,15.20
2018-01-22T09:00:44.011Z,15.00
2018-01-22T09:01:47.238Z,14.90
2018-01-22T09:02:49.724Z,15.55
2018-01-22T09:03:52.981Z,15.02
2018-01-22T09:04:55.445Z,14.63
2018-01-22T09:05:58.684Z,14.38
2018-01-22T09:07:01.158Z,14.73
2018-01-22T09:08:03.654Z,15.38
2018-01-22T09:09:06.898Z,15.05
2018-01-22T09:10:09.477Z,15.95
2018-01-22T09:11:11.938Z,14.90
2018-01-22T09:12:15.166Z,15.40
2018-01-22T09:13:17.727Z,15.55
2018-01-22T09:14:20.188Z,15.88
2018-01-22T09:15:23.466Z,14.85
2018-01-22T09:16:25.932Z,15.57
2018-01-22T09:17:28.489Z,15.77
2018-01-22T09:18:31.070Z,14.20
2018-01-22T09:19:33.542Z,14.68
2018-01-22T09:20:36.006Z,15.88
2018-01-22T09:21:39.264Z,15.27
2018-01-22T09:22:42.487Z,15.30
2018-01-22T09:23:45.744Z,16.55
2018-01-22T09:24:48.207Z,15.77
2018-01-22T09:25:50.697Z,16.50
2018-01-22T09:26:53.177Z,15.70
2018-01-22T09:27:55.648Z,15.63
2018-01-22T09:28:58.913Z,16.00
2018-01-22T09:30:01.374Z,16.55
2018-01-22T09:31:05.374Z,15.13
2018-01-22T09:32:07.861Z,15.15
2018-01-22T09:33:10.735Z,15.52
2018-01-22T09:34:13.979Z,14.82
2018-01-22T09:35:16.480Z,14.40
2018-01-22T09:36:19.038Z,15.00
2018-01-22T09:37:21.486Z,15.60
2018-01-22T09:38:23.979Z,15.20
2018-01-22T09:39:26.430Z,15.43
2018-01-22T09:40:28.919Z,15.23
2018-01-22T09:41:32.138Z,14.68
2018-01-22T09:42:34.650Z,14.18
2018-01-22T09:43:37.129Z,14.95
2018-01-22T09:44:39.595Z,15.50
2018-01-22T09:45:43.554Z,16.42
2018-01-22T09:46:46.031Z,14.70
2018-01-22T09:47:48.501Z,15.02
2018-01-22T09:48:52.482Z,15.60
2018-01-22T09:49:55.084Z,14.80
2018-01-22T09:50:57.705Z,15.70
2018-01-22T09:52:00.189Z,14.43
2018-01-22T09:53:02.649Z,15.23
2018-01-22T09:54:05.167Z,14.68
2018-01-22T09:55:07.641Z,14.10
2018-01-22T09:56:10.894Z,15.70
2018-01-22T09:57:14.148Z,15.30
2018-01-22T09:58:16.607Z,14.73
2018-01-22T09:59:19.110Z,15.05
2018-01-22T10:00:21.579Z,14.70
2018-01-22T10:01:24.054Z,14.80
2018-01-22T10:02:26.529Z,14.98
2018-01-22T10:03:30.541Z,14.50
2018-01-22T10:04:33.014Z,14.48
2018-01-22T10:05:37.184Z,14.85
2018-01-22T10:06:39.697Z,14.30
2018-01-22T10:07:42.311Z,14.93
2018-01-22T10:08:44.778Z,14.55
2018-01-22T10:09:48.017Z,14.32
2018-01-22T10:10:51.270Z,14.80
2018-01-22T10:11:54.557Z,14.73
2018-01-22T10:12:57.020Z,15.38
2018-01-22T10:13:59.510Z,14.00
2018-01-22T10:15:02.059Z,14.50
2018-01-22T10:16:04.521Z,14.15
2018-01-22T10:17:07.780Z,15.95
2018-01-22T10:18:10.309Z,16.87
2018-01-22T10:19:12.817Z,14.50
2018-01-22T10:20:16.076Z,15.13
2018-01-22T10:21:18.540Z,14.27
2018-01-22T10:22:21.119Z,14.60
2018-01-22T10:23:23.585Z,15.43
2018-01-22T10:24:26.170Z,14.93
2018-01-22T10:25:28.625Z,15.52
2018-01-22T10:26:31.148Z,14.20
2018-01-22T10:27:33.617Z,13.77
2018-01-22T10:28:36.082Z,14.25
2018-01-22T10:29:38.745Z,13.93
2018-01-22T10:30:41.235Z,13.82
2018-01-22T10:31:43.721Z,15.57
2018-01-22T10:32:46.202Z,13.98
2018-01-22T10:33:48.709Z,15.82
2018-01-22T10:34:51.178Z,15.35
2018-01-22T10:35:54.445Z,15.48
2018-01-22T10:36:57.686Z,15.15
2018-01-22T10:38:00.910Z,13.62
2018-01-22T10:39:03.374Z,15.23
2018-01-22T10:40:05.887Z,14.57
2018-01-22T10:41:09.165Z,14.45
2018-01-22T10:42:11.646Z,13.65
2018-01-22T10:43:14.893Z,14.57
2018-01-22T10:44:17.478Z,14.23
2018-01-22T10:45:19.954Z,14.40
2018-01-22T10:46:22.446Z,14.05
2018-01-22T10:47:24.932Z,13.60
2018-01-22T10:48:27.432Z,13.20
2018-01-22T10:49:30.649Z,14.50
2018-01-22T10:50:33.111Z,15.63
2018-01-22T10:51:35.630Z,14.82
2018-01-22T10:52:38.115Z,14.35
2018-01-22T10:53:40.752Z,14.20
2018-01-22T10:54:43.950Z,14.18
2018-01-22T10:55:46.435Z,15.18
2018-01-22T10:56:49.667Z,14.30
2018-01-22T10:57:53.629Z,13.85
2018-01-22T10:58:56.888Z,13.85
2018-01-22T11:00:00.134Z,14.48
2018-01-22T11:01:02.599Z,14.32
2018-01-22T11:02:05.064Z,13.40
2018-01-22T11:03:08.334Z,14.23
2018-01-22T11:04:10.826Z,13.60
2018-01-22T11:05:14.096Z,14.57
2018-01-22T11:06:16.558Z,13.30
2018-01-22T11:07:19.017Z,14.52
2018-01-22T11:08:22.255Z,13.30
2018-01-22T11:09:25.502Z,13.93
2018-01-22T11:10:27.992Z,12.88
2018-01-22T11:11:30.478Z,13.43
2018-01-22T11:12:32.951Z,14.00
2018-01-22T11:13:35.426Z,14.63
2018-01-22T11:14:37.881Z,14.32
2018-01-22T11:15:46.217Z,13.75
2018-01-22T11:16:48.685Z,12.45
2018-01-22T11:17:51.145Z,14.60
2018-01-22T11:18:54.391Z,13.93
2018-01-22T11:19:57.712Z,14.50
2018-01-22T11:21:00.181Z,13.85
2018-01-22T11:22:02.677Z,13.68
2018-01-22T11:23:05.889Z,13.15
2018-01-22T11:24:08.392Z,14.07
2018-01-22T11:25:10.887Z,13.45
2018-01-22T11:26:15.837Z,14.38
2018-01-22T11:27:19.096Z,13.27
2018-01-22T11:28:22.520Z,14.30
2018-01-22T11:29:24.978Z,13.40
2018-01-22T11:30:27.480Z,14.73
2018-01-22T11:31:29.947Z,13.30
2018-01-22T11:32:32.409Z,15.27
2018-01-22T11:33:34.905Z,13.50
2018-01-22T11:34:37.357Z,12.63
2018-01-22T11:35:39.950Z,13.27
2018-01-22T11:36:42.421Z,13.52
2018-01-22T11:37:44.885Z,12.98
2018-01-22T11:38:47.665Z,13.27
2018-01-22T11:39:50.245Z,14.07
2018-01-22T11:40:52.694Z,13.50
2018-01-22T11:41:55.183Z,14.93
2018-01-22T11:42:58.405Z,13.40
2018-01-22T11:44:00.902Z,13.02
2018-01-22T11:45:03.416Z,13.27
2018-01-22T11:46:05.881Z,13.40
2018-01-22T11:47:08.357Z,14.10
2018-01-22T11:48:10.873Z,12.95
2018-01-22T11:49:13.372Z,14.25
2018-01-22T11:50:16.654Z,13.00
2018-01-22T11:51:19.136Z,13.77
2018-01-22T11:52:22.393Z,13.15
2018-01-22T11:53:25.342Z,14.23
2018-01-22T11:54:27.818Z,14.35
2018-01-22T11:55:30.308Z,13.70
2018-01-22T11:56:32.780Z,12.15
2018-01-22T11:57:36.010Z,13.40
2018-01-22T11:58:38.547Z,12.52
2018-01-22T11:59:41.114Z,14.52
2018-01-22T12:00:43.618Z,13.60
2018-01-22T12:01:46.137Z,14.38
2018-01-22T12:02:49.377Z,12.70
2018-01-22T12:03:52.598Z,12.75
2018-01-22T12:04:55.088Z,13.32
2018-01-22T12:05:57.543Z,14.13
2018-01-22T12:07:00.776Z,13.30
2018-01-22T12:08:03.266Z,13.62
2018-01-22T12:09:05.790Z,13.23
2018-01-22T12:10:08.248Z,13.48
2018-01-22T12:11:10.709Z,12.45
2018-01-22T12:12:14.054Z,12.48
2018-01-22T12:13:17.326Z,13.00
2018-01-22T12:14:19.818Z,13.30
2018-01-22T12:15:23.093Z,13.70
2018-01-22T12:16:25.571Z,12.88
2018-01-22T12:17:28.176Z,12.70
2018-01-22T12:18:30.655Z,13.10
2018-01-22T12:19:33.897Z,12.85
2018-01-22T12:20:37.131Z,13.13
2018-01-22T12:21:40.371Z,13.32
2018-01-22T12:22:43.729Z,12.85
2018-01-22T12:23:46.210Z,12.52
2018-01-22T12:24:48.862Z,12.60
2018-01-22T12:25:51.381Z,12.65
2018-01-22T12:26:53.854Z,13.02
2018-01-22T12:27:56.342Z,13.07
2018-01-22T12:28:59.570Z,11.93
2018-01-22T12:30:02.050Z,12.10
2018-01-22T12:31:04.544Z,12.55
2018-01-22T12:32:07.840Z,13.13
2018-01-22T12:33:10.299Z,13.18
2018-01-22T12:34:13.599Z,11.93
2018-01-22T12:35:16.110Z,13.05
2018-01-22T12:36:18.586Z,11.82
2018-01-22T12:37:21.058Z,12.60
2018-01-22T12:38:23.715Z,11.25
2018-01-22T12:39:26.330Z,13.38
2018-01-22T12:40:28.793Z,11.18
2018-01-22T12:41:32.162Z,13.18
2018-01-22T12:42:35.382Z,11.70
2018-01-22T12:43:38.628Z,12.60
2018-01-22T12:44:41.856Z,12.75
2018-01-22T12:45:44.341Z,11.93
2018-01-22T12:46:46.830Z,11.95
2018-01-22T12:47:50.082Z,11.93
2018-01-22T12:48:52.564Z,11.75
2018-01-22T12:49:55.030Z,12.52
2018-01-22T12:50:57.484Z,11.23
2018-01-22T12:51:59.983Z,11.95
2018-01-22T12:53:03.226Z,12.30
2018-01-22T12:54:05.805Z,11.00
2018-01-22T12:55:08.289Z,12.00
2018-01-22T12:56:10.759Z,12.00
2018-01-22T12:57:13.250Z,11.98
2018-01-22T12:58:15.761Z,11.23
2018-01-22T12:59:18.267Z,11.48
2018-01-22T13:00:21.517Z,11.98
2018-01-22T13:01:24.016Z,11.80
2018-01-22T13:02:27.286Z,11.80
2018-01-22T13:03:29.817Z,11.60
2018-01-22T13:04:32.314Z,12.35
2018-01-22T13:05:35.603Z,11.35
2018-01-22T13:06:38.845Z,12.37
2018-01-22T13:07:41.341Z,12.02
2018-01-22T13:08:44.581Z,11.90
2018-01-22T13:09:47.815Z,11.38
2018-01-22T13:10:51.042Z,12.00
2018-01-22T13:11:53.540Z,11.23
2018-01-22T13:12:56.076Z,11.73
2018-01-22T13:13:59.497Z,11.80
2018-01-22T13:15:02.064Z,11.40
2018-01-22T13:16:04.592Z,11.63
2018-01-22T13:17:07.891Z,11.57
2018-01-22T13:18:10.498Z,11.32
2018-01-22T13:19:12.961Z,11.88
2018-01-22T13:20:15.593Z,10.82
2018-01-22T13:21:18.156Z,11.70
2018-01-22T13:22:21.399Z,11.23
2018-01-22T13:23:24.670Z,11.45
2018-01-22T13:24:27.304Z,10.90
2018-01-22T13:25:29.805Z,11.02
2018-01-22T13:26:33.033Z,12.60
2018-01-22T13:27:36.269Z,11.35
2018-01-22T13:28:38.734Z,11.10